Terminal Aerodrome Forecast
Issued by NWS Shreveport, LA

Home | Current Version | Previous Version | Text Only | Print | Product List | Glossary On
Versions: 1 2 3 4 5 6 7 8 9 10 11 12 13 14 15
084
FTUS44 KSHV 230520
TAFGGG
TAF
KGGG 230520Z 2306/2406 20007KT P6SM OVC080
      TEMPO 2309/2313 4SM BR BKN007
     FM231500 21009KT P6SM OVC025
     FM232100 20010KT P6SM VCTS BKN035CB=

USA.gov is the U.S. government's official web portal to all federal, state and local government web resources and services.